Wilton, CA (95693)

11:12 PM PST on December 21, 2014 (GMT -0800)
Cosumnes River | Change Station
CLOSE
Current Station
Personal Weather Station
Location: Wilton, CA
Elevation: 95 ft
Nearby Weather Stations

Elev 95 ft 38.44 °N, 121.23 °W | Updated 2 minutes ago

Partly Cloudy
Partly Cloudy
50.2 °F
Feels Like 50.2 °F
N
0.0
Wind Variable Wind from WSW
Gusts 0.0 mph

Today
High -- | Low -- °F
--% Chance of Precip.
Yesterday
High -- | Low -- °F
Precip. -- in
7:18 AM 4:47 PM
New Moon, 0% visible
Pressure 30.27 in
Visibility 8.0 miles
Clouds Clear
Dew Point 48 °F
Humidity 92%
Rainfall 0.00 in
Snow Depth Not available.
UV 0 out of 12
Pollen 3.30 out of 12
Air Quality Not available.
Flu Activity Not available.
METAR KMHR 220646Z 00000KT 8SM SKC 11/11 A3027

More Conditions Fewer Conditions

Pressure 30.27 in
Visibility 8.0 miles
Clouds Clear
Dew Point 48 °F
Humidity 92%
Rainfall 0.00 in
Snow Depth Not available.
UV 0 out of 12
Pollen 3.30 out of 12
Air Quality Not available.
Flu Activity Not available.
METAR KMHR 220646Z 00000KT 8SM SKC 11/11 A3027

More Conditions Fewer Conditions

10-Day Weather Forecast

Almanac

Astronomy

Dec. 21, 2014 Rise Set
Actual Time
Civil Twilight
Nautical Twilight
Astronomical Twilight
Moon
Length of Visible Light
Length of Day
Tomorrow will be .
, % of the Moon is Illuminated

Today's Extremes

State Highs State Lows

Community

WunderPhotos

Upload Photos

1,779,560 photos uploaded!

WunderBlogs® & News

Nearby

Air Quality

  Air Quality AQ Index Pollutant
Not available.

Snow Depth

Station Depth Elevation

Earthquake Activity

City Distance Mag. Time & Date
Minimum magnitude displayed is 2.5.

Coastal Water Temperatures

Place Temperature

Nearby Weather Stations